Ginys del Meteocat

Dades de l'estació automàtica la Vall d'en Bas

?
?
Resum diari 22:30 TU
Dades diàries de l'estació meteorològica
Temperatura mitjana 5.4 °C
Temperatura màxima 12.2 °C 13:10 TU
Temperatura mínima 0.4 °C 3:02 TU
Humitat relativa mitjana 91%
Precipitació acumulada 0.0 mm
Ratxa màxima del vent (2 m) 21.2 km/h - 183º 14:09 TU
Irradiació solar global 6.6 MJ/m2

El tram horari està expressat en Temps Universal (TU). Cal sumar una hora en horari d'hivern i dues en horari d'estiu per passar a l'hora oficial.

la Vall d'en Bas

Metadades estació meteorol´gica
Municipi La Vall d'en Bas
Comarca Garrotxa
Altitud 461 m
Data alta 16.03.2000
Estat actual Operativa
Dades de període
Període
TU
TM
°C
TX
°C
TN
°C
HRM
%
PPT
mm
VVM (2 m)
km/h
DVM (2 m)
graus
VVX (2 m)
km/h
RS
W/m2
00:00 - 00:30 1.3 1.4 1.1 100 0.0 0.7 224 4.0 0
00:30 - 01:00 1.1 1.4 0.9 100 0.0 1.8 205 4.3 0
01:00 - 01:30 1.0 1.0 0.8 100 0.0 0.7 247 2.5 0
01:30 - 02:00 0.9 1.0 0.7 100 0.0 1.1 216 4.0 0
02:00 - 02:30 0.7 0.9 0.6 100 0.0 2.2 234 4.3 0
02:30 - 03:00 0.8 1.0 0.6 100 0.0 1.4 54 4.3 0
03:00 - 03:30 0.7 0.8 0.4 100 0.0 2.2 49 4.0 0
03:30 - 04:00 0.7 0.8 0.6 100 0.0 1.1 327 4.3 0
04:00 - 04:30 0.8 1.2 0.7 100 0.0 3.2 212 6.1 0
04:30 - 05:00 1.2 1.2 1.1 100 0.0 2.5 208 5.8 0
05:00 - 05:30 1.3 1.5 1.1 100 0.0 1.8 256 6.5 0
05:30 - 06:00 1.6 1.8 1.4 100 0.0 2.5 3 7.2 0
06:00 - 06:30 1.9 2.0 1.8 100 0.0 1.4 359 4.0 0
06:30 - 07:00 2.0 2.0 1.9 100 0.0 1.4 310 5.4 0
07:00 - 07:30 2.0 2.0 1.9 100 0.0 1.8 204 3.6 5
07:30 - 08:00 1.9 2.1 1.8 100 0.0 1.8 217 5.4 27
08:00 - 08:30 2.1 2.4 1.8 100 0.0 1.4 223 4.7 38
08:30 - 09:00 2.9 3.3 2.4 100 0.0 2.5 178 6.1 63
09:00 - 09:30 3.7 3.9 3.5 100 0.0 3.6 225 7.9 64
09:30 - 10:00 4.4 4.8 3.9 100 0.0 1.1 213 5.0 106
10:00 - 10:30 5.2 5.5 4.8 100 0.0 2.2 357 6.1 124
10:30 - 11:00 6.1 6.7 5.6 100 0.0 2.9 47 7.6 186
11:00 - 11:30 8.1 9.3 6.8 92 0.0 1.8 61 4.7 215
11:30 - 12:00 9.4 9.6 9.1 75 0.0 1.8 27 4.7 125
12:00 - 12:30 9.5 10.4 9.1 80 0.0 3.2 288 7.9 198
12:30 - 13:00 11.1 11.5 10.4 67 0.0 5.8 227 18.7 447
13:00 - 13:30 11.7 12.2 11.2 64 0.0 7.2 237 15.8 527
13:30 - 14:00 11.8 12.1 11.6 65 0.0 9.0 217 19.1 491
14:00 - 14:30 11.5 11.8 11.4 66 0.0 10.1 205 21.2 347
14:30 - 15:00 11.7 12.0 11.2 65 0.0 9.0 219 17.6 379
15:00 - 15:30 11.4 11.8 10.8 65 0.0 9.4 209 18.7 216
15:30 - 16:00 10.9 10.9 10.8 65 0.0 7.2 190 14.8 83
16:00 - 16:30 10.7 10.8 10.5 67 0.0 5.4 187 11.2 40
16:30 - 17:00 10.2 10.4 9.7 69 0.0 4.3 197 9.4 9
17:00 - 17:30 9.5 9.9 9.0 74 0.0 3.2 192 6.8 0
17:30 - 18:00 8.4 8.9 8.0 85 0.0 3.2 215 8.6 0
18:00 - 18:30 7.8 8.3 7.6 93 0.0 2.9 282 9.4 0
18:30 - 19:00 8.2 8.3 8.0 99 0.0 2.5 263 6.8 0
19:00 - 19:30 7.9 8.2 7.5 100 0.0 4.7 276 8.6 0
19:30 - 20:00 6.8 7.4 6.4 100 0.0 3.2 230 6.8 0
20:00 - 20:30 6.0 6.3 5.4 100 0.0 2.2 202 6.5 0
20:30 - 21:00 5.6 5.8 5.3 100 0.0 1.4 286 4.7 0
21:00 - 21:30 5.0 5.4 4.7 100 0.0 1.1 180 5.4 0
21:30 - 22:00 4.7 5.1 4.1 100 0.0 1.8 217 5.0 0
22:00 - 22:30 4.1 4.5 3.4 100 0.0 1.4 51 5.8 0
22:30 - 23:00 3.5 3.9 3.1 100 0.0 2.5 350 6.5 0
23:00 - 23:30 (s/d) (s/d) (s/d) (s/d) (s/d) (s/d) (s/d) (s/d) (s/d)

Les dades en taronja només han passat un control de qualitat automàtic. Resta pendent la seva validació definitiva.